Terminal Aerodrome Forecast
Issued by NWS Cleveland, OH

Home | Current Version | Previous Version | Graphics & Text | Print | Product List | Glossary Off
Versions: 1 2 3 4 5 6 7 8 9 10 11 12

237
FTUS41 KCLE 211728
TAFMFD
TAF
KMFD 211728Z 2118/2218 09005KT P6SM BKN250
     FM212200 VRB03KT P6SM OVC150
     FM221200 06006KT P6SM SCT150=

USA.gov is the U.S. government's official web portal to all federal, state and local government web resources and services.